sensor_id;sensor_type;location;lat;lon;timestamp;temperature;humidity
11214;DHT22;5664;48.606;13.456;2022-09-09T00:01:07;17.80;99.90
11214;DHT22;5664;48.606;13.456;2022-09-09T00:03:37;17.70;99.90
11214;DHT22;5664;48.606;13.456;2022-09-09T00:06:09;17.80;99.90
11214;DHT22;5664;48.606;13.456;2022-09-09T00:11:08;17.70;99.90
11214;DHT22;5664;48.606;13.456;2022-09-09T00:13:37;17.70;99.90
11214;DHT22;5664;48.606;13.456;2022-09-09T00:16:04;17.70;99.90
11214;DHT22;5664;48.606;13.456;2022-09-09T00:18:46;17.70;99.90
11214;DHT22;5664;48.606;13.456;2022-09-09T00:21:13;17.70;99.90
11214;DHT22;5664;48.606;13.456;2022-09-09T00:23:44;17.70;99.90
11214;DHT22;5664;48.606;13.456;2022-09-09T00:31:34;17.70;99.90
11214;DHT22;5664;48.606;13.456;2022-09-09T00:34:47;17.70;99.90
11214;DHT22;5664;48.606;13.456;2022-09-09T00:36:49;17.70;99.90
11214;DHT22;5664;48.606;13.456;2022-09-09T00:39:38;17.70;99.90
11214;DHT22;5664;48.606;13.456;2022-09-09T00:44:30;17.60;99.90
11214;DHT22;5664;48.606;13.456;2022-09-09T00:51:59;17.60;99.90
11214;DHT22;5664;48.606;13.456;2022-09-09T00:54:31;17.60;99.90
11214;DHT22;5664;48.606;13.456;2022-09-09T00:57:02;17.60;99.90
11214;DHT22;5664;48.606;13.456;2022-09-09T00:59:46;17.60;99.90
11214;DHT22;5664;48.606;13.456;2022-09-09T01:04:44;17.60;99.90
11214;DHT22;5664;48.606;13.456;2022-09-09T01:07:13;17.60;99.90
11214;DHT22;5664;48.606;13.456;2022-09-09T01:09:54;17.60;99.90
11214;DHT22;5664;48.606;13.456;2022-09-09T01:12:25;17.60;99.90
11214;DHT22;5664;48.606;13.456;2022-09-09T01:14:55;17.60;99.90
11214;DHT22;5664;48.606;13.456;2022-09-09T01:17:23;17.60;99.90
11214;DHT22;5664;48.606;13.456;2022-09-09T01:19:53;17.60;99.90
11214;DHT22;5664;48.606;13.456;2022-09-09T01:25:11;17.50;99.90
11214;DHT22;5664;48.606;13.456;2022-09-09T01:27:38;17.50;99.90
11214;DHT22;5664;48.606;13.456;2022-09-09T01:30:09;17.50;99.90
11214;DHT22;5664;48.606;13.456;2022-09-09T01:32:39;17.50;99.90
11214;DHT22;5664;48.606;13.456;2022-09-09T01:35:07;17.50;99.90
11214;DHT22;5664;48.606;13.456;2022-09-09T01:37:33;17.50;99.90
11214;DHT22;5664;48.606;13.456;2022-09-09T01:39:59;17.40;99.90
11214;DHT22;5664;48.606;13.456;2022-09-09T01:42:24;17.40;99.90
11214;DHT22;5664;48.606;13.456;2022-09-09T01:44:50;17.40;99.90
11214;DHT22;5664;48.606;13.456;2022-09-09T01:47:16;17.40;99.90
11214;DHT22;5664;48.606;13.456;2022-09-09T01:49:42;17.40;99.90
11214;DHT22;5664;48.606;13.456;2022-09-09T01:52:07;17.40;99.90
11214;DHT22;5664;48.606;13.456;2022-09-09T01:54:34;17.40;99.90
11214;DHT22;5664;48.606;13.456;2022-09-09T01:57:08;17.40;99.90
11214;DHT22;5664;48.606;13.456;2022-09-09T02:02:19;17.30;99.90
11214;DHT22;5664;48.606;13.456;2022-09-09T02:04:49;17.30;99.90
11214;DHT22;5664;48.606;13.456;2022-09-09T02:10:05;17.30;99.90
11214;DHT22;5664;48.606;13.456;2022-09-09T02:12:33;17.20;99.90
11214;DHT22;5664;48.606;13.456;2022-09-09T02:15:02;17.20;99.90
11214;DHT22;5664;48.606;13.456;2022-09-09T02:17:30;17.20;99.90
11214;DHT22;5664;48.606;13.456;2022-09-09T02:20:02;17.20;99.90
11214;DHT22;5664;48.606;13.456;2022-09-09T02:22:28;17.20;99.90
11214;DHT22;5664;48.606;13.456;2022-09-09T02:24:56;17.20;99.90
11214;DHT22;5664;48.606;13.456;2022-09-09T02:27:24;17.20;99.90
11214;DHT22;5664;48.606;13.456;2022-09-09T02:29:49;17.20;99.90
11214;DHT22;5664;48.606;13.456;2022-09-09T02:32:21;17.20;99.90
11214;DHT22;5664;48.606;13.456;2022-09-09T02:34:48;17.20;99.90
11214;DHT22;5664;48.606;13.456;2022-09-09T02:37:15;17.20;99.90
11214;DHT22;5664;48.606;13.456;2022-09-09T02:39:42;17.10;99.90
11214;DHT22;5664;48.606;13.456;2022-09-09T02:42:08;17.10;99.90
11214;DHT22;5664;48.606;13.456;2022-09-09T02:44:33;17.10;99.90
11214;DHT22;5664;48.606;13.456;2022-09-09T02:49:57;17.10;99.90
11214;DHT22;5664;48.606;13.456;2022-09-09T02:55:04;17.10;99.90
11214;DHT22;5664;48.606;13.456;2022-09-09T02:57:32;17.10;99.90
11214;DHT22;5664;48.606;13.456;2022-09-09T02:59:58;17.00;99.90
11214;DHT22;5664;48.606;13.456;2022-09-09T03:02:24;17.00;99.90
11214;DHT22;5664;48.606;13.456;2022-09-09T03:04:50;17.00;99.90
11214;DHT22;5664;48.606;13.456;2022-09-09T03:07:17;17.00;99.90
11214;DHT22;5664;48.606;13.456;2022-09-09T03:09:43;17.00;99.90
11214;DHT22;5664;48.606;13.456;2022-09-09T03:12:08;17.00;99.90
11214;DHT22;5664;48.606;13.456;2022-09-09T03:14:35;17.00;99.90
11214;DHT22;5664;48.606;13.456;2022-09-09T03:17:00;17.00;99.90
11214;DHT22;5664;48.606;13.456;2022-09-09T03:19:27;17.00;99.90
11214;DHT22;5664;48.606;13.456;2022-09-09T03:21:53;17.00;99.90
11214;DHT22;5664;48.606;13.456;2022-09-09T03:24:18;17.00;99.90
11214;DHT22;5664;48.606;13.456;2022-09-09T03:26:44;17.00;99.90
11214;DHT22;5664;48.606;13.456;2022-09-09T03:29:10;17.00;99.90
11214;DHT22;5664;48.606;13.456;2022-09-09T03:31:37;17.00;99.90
11214;DHT22;5664;48.606;13.456;2022-09-09T03:34:03;17.00;99.90
11214;DHT22;5664;48.606;13.456;2022-09-09T03:36:28;16.90;99.90
11214;DHT22;5664;48.606;13.456;2022-09-09T03:38:54;16.90;99.90
11214;DHT22;5664;48.606;13.456;2022-09-09T03:41:20;17.00;99.90
11214;DHT22;5664;48.606;13.456;2022-09-09T03:43:47;16.90;99.90
11214;DHT22;5664;48.606;13.456;2022-09-09T03:46:12;16.90;99.90
11214;DHT22;5664;48.606;13.456;2022-09-09T03:48:38;16.90;99.90
11214;DHT22;5664;48.606;13.456;2022-09-09T03:51:03;16.90;99.90
11214;DHT22;5664;48.606;13.456;2022-09-09T03:53:29;16.90;99.90
11214;DHT22;5664;48.606;13.456;2022-09-09T03:55:55;16.90;99.90
11214;DHT22;5664;48.606;13.456;2022-09-09T03:58:21;16.80;99.90
11214;DHT22;5664;48.606;13.456;2022-09-09T04:00:56;16.90;99.90
11214;DHT22;5664;48.606;13.456;2022-09-09T04:03:22;16.80;99.90
11214;DHT22;5664;48.606;13.456;2022-09-09T04:05:50;16.80;99.90
11214;DHT22;5664;48.606;13.456;2022-09-09T04:08:16;16.80;99.90
11214;DHT22;5664;48.606;13.456;2022-09-09T04:10:44;16.80;99.90
11214;DHT22;5664;48.606;13.456;2022-09-09T04:13:10;16.80;99.90
11214;DHT22;5664;48.606;13.456;2022-09-09T04:15:37;16.80;99.90
11214;DHT22;5664;48.606;13.456;2022-09-09T04:18:03;16.90;99.90
11214;DHT22;5664;48.606;13.456;2022-09-09T04:20:28;16.80;99.90
11214;DHT22;5664;48.606;13.456;2022-09-09T04:22:55;16.80;99.90
11214;DHT22;5664;48.606;13.456;2022-09-09T04:25:20;16.90;99.90
11214;DHT22;5664;48.606;13.456;2022-09-09T04:27:46;16.80;99.90
11214;DHT22;5664;48.606;13.456;2022-09-09T04:30:12;16.90;99.90
11214;DHT22;5664;48.606;13.456;2022-09-09T04:32:38;16.80;99.90
11214;DHT22;5664;48.606;13.456;2022-09-09T04:35:03;16.80;99.90
11214;DHT22;5664;48.606;13.456;2022-09-09T04:37:29;16.80;99.90
11214;DHT22;5664;48.606;13.456;2022-09-09T04:39:55;16.80;99.90
11214;DHT22;5664;48.606;13.456;2022-09-09T04:42:21;16.80;99.90
11214;DHT22;5664;48.606;13.456;2022-09-09T04:44:46;16.80;99.90
11214;DHT22;5664;48.606;13.456;2022-09-09T04:47:12;16.80;99.90
11214;DHT22;5664;48.606;13.456;2022-09-09T04:49:38;16.80;99.90
11214;DHT22;5664;48.606;13.456;2022-09-09T04:52:03;16.80;99.90
11214;DHT22;5664;48.606;13.456;2022-09-09T04:54:29;16.80;99.90
11214;DHT22;5664;48.606;13.456;2022-09-09T04:56:55;16.90;99.90
11214;DHT22;5664;48.606;13.456;2022-09-09T04:59:21;16.90;99.90
11214;DHT22;5664;48.606;13.456;2022-09-09T05:01:47;16.80;99.90
11214;DHT22;5664;48.606;13.456;2022-09-09T05:04:13;16.80;99.90
11214;DHT22;5664;48.606;13.456;2022-09-09T05:06:40;16.80;99.90
11214;DHT22;5664;48.606;13.456;2022-09-09T05:09:05;16.80;99.90
11214;DHT22;5664;48.606;13.456;2022-09-09T05:11:31;16.80;99.90
11214;DHT22;5664;48.606;13.456;2022-09-09T05:13:57;16.80;99.90
11214;DHT22;5664;48.606;13.456;2022-09-09T05:16:23;16.80;99.90
11214;DHT22;5664;48.606;13.456;2022-09-09T05:18:48;16.80;99.90
11214;DHT22;5664;48.606;13.456;2022-09-09T05:21:16;16.80;99.90
11214;DHT22;5664;48.606;13.456;2022-09-09T05:23:41;16.80;99.90
11214;DHT22;5664;48.606;13.456;2022-09-09T05:26:09;16.80;99.90
11214;DHT22;5664;48.606;13.456;2022-09-09T05:28:36;16.80;99.90
11214;DHT22;5664;48.606;13.456;2022-09-09T05:31:03;16.80;99.90
11214;DHT22;5664;48.606;13.456;2022-09-09T05:33:30;16.80;99.90
11214;DHT22;5664;48.606;13.456;2022-09-09T05:35:56;16.80;99.90
11214;DHT22;5664;48.606;13.456;2022-09-09T05:38:22;16.80;99.90
11214;DHT22;5664;48.606;13.456;2022-09-09T05:40:50;16.80;99.90
11214;DHT22;5664;48.606;13.456;2022-09-09T05:43:17;16.80;99.90
11214;DHT22;5664;48.606;13.456;2022-09-09T05:45:43;16.80;99.90
11214;DHT22;5664;48.606;13.456;2022-09-09T05:48:08;16.80;99.90
11214;DHT22;5664;48.606;13.456;2022-09-09T05:50:34;16.80;99.90
11214;DHT22;5664;48.606;13.456;2022-09-09T05:52:59;16.80;99.90
11214;DHT22;5664;48.606;13.456;2022-09-09T05:55:25;16.80;99.90
11214;DHT22;5664;48.606;13.456;2022-09-09T05:57:50;16.90;99.90
11214;DHT22;5664;48.606;13.456;2022-09-09T06:00:17;16.90;99.90
11214;DHT22;5664;48.606;13.456;2022-09-09T06:02:43;16.90;99.90
11214;DHT22;5664;48.606;13.456;2022-09-09T06:05:09;16.90;99.90
11214;DHT22;5664;48.606;13.456;2022-09-09T06:07:35;16.90;99.90
11214;DHT22;5664;48.606;13.456;2022-09-09T06:10:01;16.90;99.90
11214;DHT22;5664;48.606;13.456;2022-09-09T06:12:26;17.00;99.90
11214;DHT22;5664;48.606;13.456;2022-09-09T06:14:52;17.00;99.90
11214;DHT22;5664;48.606;13.456;2022-09-09T06:17:17;17.00;99.90
11214;DHT22;5664;48.606;13.456;2022-09-09T06:19:43;17.00;99.90
11214;DHT22;5664;48.606;13.456;2022-09-09T06:22:08;17.00;99.90
11214;DHT22;5664;48.606;13.456;2022-09-09T06:24:37;17.00;99.90
11214;DHT22;5664;48.606;13.456;2022-09-09T06:27:03;17.00;99.90
11214;DHT22;5664;48.606;13.456;2022-09-09T06:29:30;17.00;99.90
11214;DHT22;5664;48.606;13.456;2022-09-09T06:31:56;17.00;99.90
11214;DHT22;5664;48.606;13.456;2022-09-09T06:34:21;17.00;99.90
11214;DHT22;5664;48.606;13.456;2022-09-09T06:36:47;17.00;99.90
11214;DHT22;5664;48.606;13.456;2022-09-09T06:39:12;17.10;99.90
11214;DHT22;5664;48.606;13.456;2022-09-09T06:41:39;17.10;99.90
11214;DHT22;5664;48.606;13.456;2022-09-09T06:44:04;17.10;99.90
11214;DHT22;5664;48.606;13.456;2022-09-09T06:46:30;17.10;99.90
11214;DHT22;5664;48.606;13.456;2022-09-09T06:48:57;17.10;99.90
11214;DHT22;5664;48.606;13.456;2022-09-09T06:51:31;17.10;99.90
11214;DHT22;5664;48.606;13.456;2022-09-09T06:53:59;17.10;99.90
11214;DHT22;5664;48.606;13.456;2022-09-09T06:56:26;17.10;99.90
11214;DHT22;5664;48.606;13.456;2022-09-09T06:58:53;17.10;99.90
11214;DHT22;5664;48.606;13.456;2022-09-09T07:01:20;17.10;99.90
11214;DHT22;5664;48.606;13.456;2022-09-09T07:03:47;17.10;99.90
11214;DHT22;5664;48.606;13.456;2022-09-09T07:06:14;17.10;99.90
11214;DHT22;5664;48.606;13.456;2022-09-09T07:08:40;17.20;99.90
11214;DHT22;5664;48.606;13.456;2022-09-09T07:11:07;17.20;99.90
11214;DHT22;5664;48.606;13.456;2022-09-09T07:13:33;17.20;99.90
11214;DHT22;5664;48.606;13.456;2022-09-09T07:16:08;17.20;99.90
11214;DHT22;5664;48.606;13.456;2022-09-09T07:18:34;17.30;99.90
11214;DHT22;5664;48.606;13.456;2022-09-09T07:21:00;17.30;99.90
11214;DHT22;5664;48.606;13.456;2022-09-09T07:23:27;17.30;99.90
11214;DHT22;5664;48.606;13.456;2022-09-09T07:25:52;17.20;99.90
11214;DHT22;5664;48.606;13.456;2022-09-09T07:28:18;17.30;99.90
11214;DHT22;5664;48.606;13.456;2022-09-09T07:30:52;17.30;99.90
11214;DHT22;5664;48.606;13.456;2022-09-09T07:33:18;17.30;99.90
11214;DHT22;5664;48.606;13.456;2022-09-09T07:35:45;17.30;99.90
11214;DHT22;5664;48.606;13.456;2022-09-09T07:38:11;17.40;99.90
11214;DHT22;5664;48.606;13.456;2022-09-09T07:40:36;17.40;99.90
11214;DHT22;5664;48.606;13.456;2022-09-09T07:43:02;17.40;99.90
11214;DHT22;5664;48.606;13.456;2022-09-09T07:45:27;17.40;99.90
11214;DHT22;5664;48.606;13.456;2022-09-09T07:47:53;17.40;99.90
11214;DHT22;5664;48.606;13.456;2022-09-09T07:50:21;17.40;99.90
11214;DHT22;5664;48.606;13.456;2022-09-09T07:52:46;17.40;99.90
11214;DHT22;5664;48.606;13.456;2022-09-09T07:55:13;17.40;99.90
11214;DHT22;5664;48.606;13.456;2022-09-09T07:57:39;17.40;99.90
11214;DHT22;5664;48.606;13.456;2022-09-09T08:00:05;17.50;99.90
11214;DHT22;5664;48.606;13.456;2022-09-09T08:02:31;17.50;99.90
11214;DHT22;5664;48.606;13.456;2022-09-09T08:04:56;17.50;99.90
11214;DHT22;5664;48.606;13.456;2022-09-09T08:07:22;17.50;99.90
11214;DHT22;5664;48.606;13.456;2022-09-09T08:09:48;17.50;99.90
11214;DHT22;5664;48.606;13.456;2022-09-09T08:12:15;17.50;99.90
11214;DHT22;5664;48.606;13.456;2022-09-09T08:14:40;17.50;99.90
11214;DHT22;5664;48.606;13.456;2022-09-09T08:17:06;17.50;99.90
11214;DHT22;5664;48.606;13.456;2022-09-09T08:19:31;17.50;99.90
11214;DHT22;5664;48.606;13.456;2022-09-09T08:22:01;17.50;99.90
11214;DHT22;5664;48.606;13.456;2022-09-09T08:24:27;17.50;99.90
11214;DHT22;5664;48.606;13.456;2022-09-09T08:26:52;17.60;99.90
11214;DHT22;5664;48.606;13.456;2022-09-09T08:29:19;17.60;99.90
11214;DHT22;5664;48.606;13.456;2022-09-09T08:31:48;17.60;99.90
11214;DHT22;5664;48.606;13.456;2022-09-09T08:34:14;17.60;99.90
11214;DHT22;5664;48.606;13.456;2022-09-09T08:36:41;17.60;99.90
11214;DHT22;5664;48.606;13.456;2022-09-09T08:39:07;17.60;99.90
11214;DHT22;5664;48.606;13.456;2022-09-09T08:44:16;17.70;99.90
11214;DHT22;5664;48.606;13.456;2022-09-09T08:51:41;17.80;99.90
11214;DHT22;5664;48.606;13.456;2022-09-09T08:54:07;17.80;99.90
11214;DHT22;5664;48.606;13.456;2022-09-09T08:56:34;17.80;99.90
11214;DHT22;5664;48.606;13.456;2022-09-09T08:59:01;17.80;99.90
11214;DHT22;5664;48.606;13.456;2022-09-09T09:01:35;17.80;99.90
11214;DHT22;5664;48.606;13.456;2022-09-09T09:11:53;17.90;99.90
11214;DHT22;5664;48.606;13.456;2022-09-09T09:14:23;17.90;99.90
11214;DHT22;5664;48.606;13.456;2022-09-09T09:16:53;17.90;99.90
11214;DHT22;5664;48.606;13.456;2022-09-09T09:19:20;17.90;99.90
11214;DHT22;5664;48.606;13.456;2022-09-09T09:21:54;18.00;99.90
11214;DHT22;5664;48.606;13.456;2022-09-09T09:24:25;17.90;99.90
11214;DHT22;5664;48.606;13.456;2022-09-09T09:26:52;18.00;99.90
11214;DHT22;5664;48.606;13.456;2022-09-09T09:29:19;18.00;99.90
11214;DHT22;5664;48.606;13.456;2022-09-09T09:31:50;18.00;99.90
11214;DHT22;5664;48.606;13.456;2022-09-09T09:34:16;18.00;99.90
11214;DHT22;5664;48.606;13.456;2022-09-09T09:36:43;18.10;99.90
11214;DHT22;5664;48.606;13.456;2022-09-09T09:39:21;18.10;99.90
11214;DHT22;5664;48.606;13.456;2022-09-09T09:41:47;18.10;99.90
11214;DHT22;5664;48.606;13.456;2022-09-09T09:44:21;18.10;99.90
11214;DHT22;5664;48.606;13.456;2022-09-09T09:46:47;18.10;99.90
11214;DHT22;5664;48.606;13.456;2022-09-09T09:49:12;18.10;99.90
11214;DHT22;5664;48.606;13.456;2022-09-09T09:51:39;18.10;99.90
11214;DHT22;5664;48.606;13.456;2022-09-09T09:56:30;18.10;99.90
11214;DHT22;5664;48.606;13.456;2022-09-09T09:58:57;18.10;99.90
11214;DHT22;5664;48.606;13.456;2022-09-09T10:01:25;18.10;99.90
11214;DHT22;5664;48.606;13.456;2022-09-09T10:04:03;18.20;99.90
11214;DHT22;5664;48.606;13.456;2022-09-09T10:06:38;18.20;99.90
11214;DHT22;5664;48.606;13.456;2022-09-09T10:09:20;18.20;99.90
11214;DHT22;5664;48.606;13.456;2022-09-09T10:11:52;18.20;99.90
11214;DHT22;5664;48.606;13.456;2022-09-09T10:19:35;18.20;99.90
11214;DHT22;5664;48.606;13.456;2022-09-09T10:32:13;18.20;99.90
11214;DHT22;5664;48.606;13.456;2022-09-09T10:42:46;18.30;99.90
11214;DHT22;5664;48.606;13.456;2022-09-09T10:48:14;18.30;99.90
11214;DHT22;5664;48.606;13.456;2022-09-09T10:53:18;18.30;99.90
11214;DHT22;5664;48.606;13.456;2022-09-09T10:55:51;18.30;99.90
11214;DHT22;5664;48.606;13.456;2022-09-09T10:58:19;18.30;99.90
11214;DHT22;5664;48.606;13.456;2022-09-09T11:00:49;18.30;99.90
11214;DHT22;5664;48.606;13.456;2022-09-09T11:03:23;18.30;99.90
11214;DHT22;5664;48.606;13.456;2022-09-09T11:06:34;18.30;99.90
11214;DHT22;5664;48.606;13.456;2022-09-09T11:08:38;18.30;99.90
11214;DHT22;5664;48.606;13.456;2022-09-09T11:18:55;18.30;99.90
11214;DHT22;5664;48.606;13.456;2022-09-09T11:21:54;18.30;99.90
11214;DHT22;5664;48.606;13.456;2022-09-09T11:24:29;18.30;99.90
11214;DHT22;5664;48.606;13.456;2022-09-09T11:27:11;18.30;99.90
11214;DHT22;5664;48.606;13.456;2022-09-09T11:40:16;18.30;99.90
11214;DHT22;5664;48.606;13.456;2022-09-09T11:42:44;18.30;99.90
11214;DHT22;5664;48.606;13.456;2022-09-09T11:45:20;18.40;99.90
11214;DHT22;5664;48.606;13.456;2022-09-09T11:47:54;18.40;99.90
11214;DHT22;5664;48.606;13.456;2022-09-09T11:52:45;18.30;99.90
11214;DHT22;5664;48.606;13.456;2022-09-09T11:55:23;18.30;99.90
11214;DHT22;5664;48.606;13.456;2022-09-09T11:57:57;18.30;99.90
11214;DHT22;5664;48.606;13.456;2022-09-09T12:00:38;18.30;99.90
11214;DHT22;5664;48.606;13.456;2022-09-09T12:03:05;18.20;99.90
11214;DHT22;5664;48.606;13.456;2022-09-09T12:06:08;18.20;99.90
11214;DHT22;5664;48.606;13.456;2022-09-09T12:08:26;18.20;99.90
11214;DHT22;5664;48.606;13.456;2022-09-09T12:10:54;18.20;99.90
11214;DHT22;5664;48.606;13.456;2022-09-09T12:13:21;18.20;99.90
11214;DHT22;5664;48.606;13.456;2022-09-09T12:15:51;18.20;99.90
11214;DHT22;5664;48.606;13.456;2022-09-09T12:18:25;18.20;99.90
11214;DHT22;5664;48.606;13.456;2022-09-09T12:20:53;18.20;99.90
11214;DHT22;5664;48.606;13.456;2022-09-09T12:23:22;18.20;99.90
11214;DHT22;5664;48.606;13.456;2022-09-09T12:25:54;18.20;99.90
11214;DHT22;5664;48.606;13.456;2022-09-09T12:28:30;18.20;99.90
11214;DHT22;5664;48.606;13.456;2022-09-09T12:33:39;18.20;99.90
11214;DHT22;5664;48.606;13.456;2022-09-09T12:36:12;18.20;99.90
11214;DHT22;5664;48.606;13.456;2022-09-09T12:38:39;18.20;99.90
11214;DHT22;5664;48.606;13.456;2022-09-09T12:41:05;18.20;99.90
11214;DHT22;5664;48.606;13.456;2022-09-09T12:43:31;18.20;99.90
11214;DHT22;5664;48.606;13.456;2022-09-09T12:46:01;18.20;99.90
11214;DHT22;5664;48.606;13.456;2022-09-09T12:48:29;18.20;99.90
11214;DHT22;5664;48.606;13.456;2022-09-09T12:50:56;18.20;99.90
11214;DHT22;5664;48.606;13.456;2022-09-09T12:53:23;18.20;99.90
11214;DHT22;5664;48.606;13.456;2022-09-09T12:55:52;18.20;99.90
11214;DHT22;5664;48.606;13.456;2022-09-09T12:58:19;18.20;99.90
11214;DHT22;5664;48.606;13.456;2022-09-09T13:00:50;18.20;99.90
11214;DHT22;5664;48.606;13.456;2022-09-09T13:03:18;18.20;99.90
11214;DHT22;5664;48.606;13.456;2022-09-09T13:05:45;18.20;99.90
11214;DHT22;5664;48.606;13.456;2022-09-09T13:08:12;18.20;99.90
11214;DHT22;5664;48.606;13.456;2022-09-09T13:13:14;18.20;99.90
11214;DHT22;5664;48.606;13.456;2022-09-09T13:15:40;18.20;99.90
11214;DHT22;5664;48.606;13.456;2022-09-09T13:18:13;18.20;99.90
11214;DHT22;5664;48.606;13.456;2022-09-09T13:20:44;18.30;99.90
11214;DHT22;5664;48.606;13.456;2022-09-09T13:23:11;18.30;99.90
11214;DHT22;5664;48.606;13.456;2022-09-09T13:25:37;18.30;99.90
11214;DHT22;5664;48.606;13.456;2022-09-09T13:28:04;18.30;99.90
11214;DHT22;5664;48.606;13.456;2022-09-09T13:33:39;18.40;99.90
11214;DHT22;5664;48.606;13.456;2022-09-09T13:38:28;18.40;99.90
11214;DHT22;5664;48.606;13.456;2022-09-09T13:40:57;18.30;99.90
11214;DHT22;5664;48.606;13.456;2022-09-09T13:43:26;18.30;99.90
11214;DHT22;5664;48.606;13.456;2022-09-09T13:45:53;18.30;99.90
11214;DHT22;5664;48.606;13.456;2022-09-09T13:48:19;18.30;99.90
11214;DHT22;5664;48.606;13.456;2022-09-09T13:50:53;18.30;99.90
11214;DHT22;5664;48.606;13.456;2022-09-09T13:53:19;18.30;99.90
11214;DHT22;5664;48.606;13.456;2022-09-09T13:55:44;18.30;99.90
11214;DHT22;5664;48.606;13.456;2022-09-09T13:58:16;18.40;99.90
11214;DHT22;5664;48.606;13.456;2022-09-09T14:00:44;18.40;99.90
11214;DHT22;5664;48.606;13.456;2022-09-09T14:03:10;18.40;99.90
11214;DHT22;5664;48.606;13.456;2022-09-09T14:05:35;18.40;99.90
11214;DHT22;5664;48.606;13.456;2022-09-09T14:08:02;18.40;99.90
11214;DHT22;5664;48.606;13.456;2022-09-09T14:10:28;18.40;99.90
11214;DHT22;5664;48.606;13.456;2022-09-09T14:12:54;18.30;99.90
11214;DHT22;5664;48.606;13.456;2022-09-09T14:15:19;18.40;99.90
11214;DHT22;5664;48.606;13.456;2022-09-09T14:17:45;18.40;99.90
11214;DHT22;5664;48.606;13.456;2022-09-09T14:20:10;18.40;99.90
11214;DHT22;5664;48.606;13.456;2022-09-09T14:22:37;18.40;99.90
11214;DHT22;5664;48.606;13.456;2022-09-09T14:25:04;18.50;99.90
11214;DHT22;5664;48.606;13.456;2022-09-09T14:27:31;18.50;99.90
11214;DHT22;5664;48.606;13.456;2022-09-09T14:29:57;18.50;99.90
11214;DHT22;5664;48.606;13.456;2022-09-09T14:32:25;18.60;99.90
11214;DHT22;5664;48.606;13.456;2022-09-09T14:34:51;18.60;99.90
11214;DHT22;5664;48.606;13.456;2022-09-09T14:37:17;18.70;99.90
11214;DHT22;5664;48.606;13.456;2022-09-09T14:39:42;18.70;99.90
11214;DHT22;5664;48.606;13.456;2022-09-09T14:42:12;18.70;99.90
11214;DHT22;5664;48.606;13.456;2022-09-09T14:44:38;18.70;99.90
11214;DHT22;5664;48.606;13.456;2022-09-09T14:47:04;18.70;99.90
11214;DHT22;5664;48.606;13.456;2022-09-09T14:49:29;18.70;99.90
11214;DHT22;5664;48.606;13.456;2022-09-09T14:51:55;18.70;99.90
11214;DHT22;5664;48.606;13.456;2022-09-09T14:54:20;18.70;99.90
11214;DHT22;5664;48.606;13.456;2022-09-09T14:56:48;18.70;99.90
11214;DHT22;5664;48.606;13.456;2022-09-09T14:59:13;18.70;99.90
11214;DHT22;5664;48.606;13.456;2022-09-09T15:01:39;18.70;99.90
11214;DHT22;5664;48.606;13.456;2022-09-09T15:04:05;18.80;99.90
11214;DHT22;5664;48.606;13.456;2022-09-09T15:06:31;18.80;99.90
11214;DHT22;5664;48.606;13.456;2022-09-09T15:08:58;18.80;99.90
11214;DHT22;5664;48.606;13.456;2022-09-09T15:11:28;18.80;99.90
11214;DHT22;5664;48.606;13.456;2022-09-09T15:13:55;18.80;99.90
11214;DHT22;5664;48.606;13.456;2022-09-09T15:16:25;18.90;99.90
11214;DHT22;5664;48.606;13.456;2022-09-09T15:18:51;18.90;99.90
11214;DHT22;5664;48.606;13.456;2022-09-09T15:21:19;18.90;99.90
11214;DHT22;5664;48.606;13.456;2022-09-09T15:23:46;18.90;99.90
11214;DHT22;5664;48.606;13.456;2022-09-09T15:26:12;18.90;99.90
11214;DHT22;5664;48.606;13.456;2022-09-09T15:28:41;18.90;99.90
11214;DHT22;5664;48.606;13.456;2022-09-09T15:31:09;19.00;99.90
11214;DHT22;5664;48.606;13.456;2022-09-09T15:33:36;19.00;99.90
11214;DHT22;5664;48.606;13.456;2022-09-09T15:36:18;19.00;99.90
11214;DHT22;5664;48.606;13.456;2022-09-09T15:38:44;19.00;99.90
11214;DHT22;5664;48.606;13.456;2022-09-09T15:41:10;19.00;99.90
11214;DHT22;5664;48.606;13.456;2022-09-09T15:43:35;19.00;99.90
11214;DHT22;5664;48.606;13.456;2022-09-09T15:46:05;19.00;99.90
11214;DHT22;5664;48.606;13.456;2022-09-09T15:48:34;19.00;99.90
11214;DHT22;5664;48.606;13.456;2022-09-09T15:51:02;19.00;99.90
11214;DHT22;5664;48.606;13.456;2022-09-09T15:53:29;19.00;99.90
11214;DHT22;5664;48.606;13.456;2022-09-09T15:55:55;19.50;99.90
11214;DHT22;5664;48.606;13.456;2022-09-09T15:58:21;19.00;99.90
11214;DHT22;5664;48.606;13.456;2022-09-09T16:00:46;19.00;99.90
11214;DHT22;5664;48.606;13.456;2022-09-09T16:03:11;19.00;99.90
11214;DHT22;5664;48.606;13.456;2022-09-09T16:05:37;19.00;99.90
11214;DHT22;5664;48.606;13.456;2022-09-09T16:08:02;19.00;99.90
11214;DHT22;5664;48.606;13.456;2022-09-09T16:10:29;19.00;99.90
11214;DHT22;5664;48.606;13.456;2022-09-09T16:12:56;19.00;99.90
11214;DHT22;5664;48.606;13.456;2022-09-09T16:15:21;19.10;99.90
11214;DHT22;5664;48.606;13.456;2022-09-09T16:17:48;19.00;99.90
11214;DHT22;5664;48.606;13.456;2022-09-09T16:20:14;19.10;99.90
11214;DHT22;5664;48.606;13.456;2022-09-09T16:22:39;19.10;99.90
11214;DHT22;5664;48.606;13.456;2022-09-09T16:25:05;19.10;99.90
11214;DHT22;5664;48.606;13.456;2022-09-09T16:27:31;19.10;99.90
11214;DHT22;5664;48.606;13.456;2022-09-09T16:29:57;19.10;99.90
11214;DHT22;5664;48.606;13.456;2022-09-09T16:32:22;19.10;99.90
11214;DHT22;5664;48.606;13.456;2022-09-09T16:34:47;19.10;99.90
11214;DHT22;5664;48.606;13.456;2022-09-09T16:37:13;19.10;99.90
11214;DHT22;5664;48.606;13.456;2022-09-09T16:39:38;19.00;99.90
11214;DHT22;5664;48.606;13.456;2022-09-09T16:42:04;19.00;99.90
11214;DHT22;5664;48.606;13.456;2022-09-09T16:44:30;19.00;99.90
11214;DHT22;5664;48.606;13.456;2022-09-09T16:46:55;18.90;99.90
11214;DHT22;5664;48.606;13.456;2022-09-09T16:49:21;18.90;99.90
11214;DHT22;5664;48.606;13.456;2022-09-09T16:51:47;18.90;99.90
11214;DHT22;5664;48.606;13.456;2022-09-09T16:54:13;18.90;99.90
11214;DHT22;5664;48.606;13.456;2022-09-09T16:56:42;18.90;99.90
11214;DHT22;5664;48.606;13.456;2022-09-09T16:59:09;18.90;99.90
11214;DHT22;5664;48.606;13.456;2022-09-09T17:01:36;18.90;99.90
11214;DHT22;5664;48.606;13.456;2022-09-09T17:04:07;18.90;99.90
11214;DHT22;5664;48.606;13.456;2022-09-09T17:06:33;18.80;99.90
11214;DHT22;5664;48.606;13.456;2022-09-09T17:09:08;18.90;99.90
11214;DHT22;5664;48.606;13.456;2022-09-09T17:11:34;18.80;99.90
11214;DHT22;5664;48.606;13.456;2022-09-09T17:14:00;18.90;99.90
11214;DHT22;5664;48.606;13.456;2022-09-09T17:16:27;18.80;99.90
11214;DHT22;5664;48.606;13.456;2022-09-09T17:18:53;18.80;99.90
11214;DHT22;5664;48.606;13.456;2022-09-09T17:21:20;18.80;99.90
11214;DHT22;5664;48.606;13.456;2022-09-09T17:23:46;18.80;99.90